sensor_id;sensor_type;location;lat;lon;timestamp;temperature;humidity
40255;DHT22;25973;52.368;4.940;2022-08-19T00:01:20;21.10;99.90
40255;DHT22;25973;52.368;4.940;2022-08-19T00:03:46;21.10;99.90
40255;DHT22;25973;52.368;4.940;2022-08-19T00:06:12;21.10;99.90
40255;DHT22;25973;52.368;4.940;2022-08-19T00:08:38;21.10;99.90
40255;DHT22;25973;52.368;4.940;2022-08-19T00:11:04;21.10;99.90
40255;DHT22;25973;52.368;4.940;2022-08-19T00:13:30;21.10;99.90
40255;DHT22;25973;52.368;4.940;2022-08-19T00:15:56;21.00;99.90
40255;DHT22;25973;52.368;4.940;2022-08-19T00:18:22;21.00;99.90
40255;DHT22;25973;52.368;4.940;2022-08-19T00:20:47;21.00;99.90
40255;DHT22;25973;52.368;4.940;2022-08-19T00:23:13;21.00;99.90
40255;DHT22;25973;52.368;4.940;2022-08-19T00:25:40;21.00;99.90
40255;DHT22;25973;52.368;4.940;2022-08-19T00:28:06;20.90;99.90
40255;DHT22;25973;52.368;4.940;2022-08-19T00:30:31;20.90;99.90
40255;DHT22;25973;52.368;4.940;2022-08-19T00:32:57;20.90;99.90
40255;DHT22;25973;52.368;4.940;2022-08-19T00:35:23;20.80;99.90
40255;DHT22;25973;52.368;4.940;2022-08-19T00:37:49;20.80;99.90
40255;DHT22;25973;52.368;4.940;2022-08-19T00:40:15;20.70;99.90
40255;DHT22;25973;52.368;4.940;2022-08-19T00:42:41;20.70;99.90
40255;DHT22;25973;52.368;4.940;2022-08-19T00:45:14;20.70;99.90
40255;DHT22;25973;52.368;4.940;2022-08-19T00:47:40;20.70;99.90
40255;DHT22;25973;52.368;4.940;2022-08-19T00:50:08;20.70;99.90
40255;DHT22;25973;52.368;4.940;2022-08-19T00:52:38;20.70;99.90
40255;DHT22;25973;52.368;4.940;2022-08-19T00:55:07;20.70;99.90
40255;DHT22;25973;52.368;4.940;2022-08-19T00:57:38;20.70;99.90
40255;DHT22;25973;52.368;4.940;2022-08-19T01:00:08;20.70;99.90
40255;DHT22;25973;52.368;4.940;2022-08-19T01:02:36;20.70;99.90
40255;DHT22;25973;52.368;4.940;2022-08-19T01:05:05;20.70;99.90
40255;DHT22;25973;52.368;4.940;2022-08-19T01:07:33;20.70;99.90
40255;DHT22;25973;52.368;4.940;2022-08-19T01:09:59;20.70;99.90
40255;DHT22;25973;52.368;4.940;2022-08-19T01:12:25;20.60;99.90
40255;DHT22;25973;52.368;4.940;2022-08-19T01:14:51;20.60;99.90
40255;DHT22;25973;52.368;4.940;2022-08-19T01:17:17;20.60;99.90
40255;DHT22;25973;52.368;4.940;2022-08-19T01:19:45;20.60;99.90
40255;DHT22;25973;52.368;4.940;2022-08-19T01:24:48;20.50;99.90
40255;DHT22;25973;52.368;4.940;2022-08-19T01:27:14;20.50;99.90
40255;DHT22;25973;52.368;4.940;2022-08-19T01:29:42;20.40;99.90
40255;DHT22;25973;52.368;4.940;2022-08-19T01:32:11;20.40;99.90
40255;DHT22;25973;52.368;4.940;2022-08-19T01:34:38;20.50;99.90
40255;DHT22;25973;52.368;4.940;2022-08-19T01:37:10;20.40;99.90
40255;DHT22;25973;52.368;4.940;2022-08-19T01:39:38;20.40;99.90
40255;DHT22;25973;52.368;4.940;2022-08-19T01:42:04;20.40;99.90
40255;DHT22;25973;52.368;4.940;2022-08-19T01:44:31;20.40;99.90
40255;DHT22;25973;52.368;4.940;2022-08-19T01:46:57;20.40;99.90
40255;DHT22;25973;52.368;4.940;2022-08-19T01:49:24;20.40;99.90
40255;DHT22;25973;52.368;4.940;2022-08-19T01:51:52;20.40;99.90
40255;DHT22;25973;52.368;4.940;2022-08-19T01:54:20;20.40;99.90
40255;DHT22;25973;52.368;4.940;2022-08-19T01:56:46;20.40;99.90
40255;DHT22;25973;52.368;4.940;2022-08-19T01:59:15;20.30;99.90
40255;DHT22;25973;52.368;4.940;2022-08-19T02:01:41;20.30;99.90
40255;DHT22;25973;52.368;4.940;2022-08-19T02:04:07;20.30;99.90
40255;DHT22;25973;52.368;4.940;2022-08-19T02:06:34;20.30;99.90
40255;DHT22;25973;52.368;4.940;2022-08-19T02:09:04;20.30;99.90
40255;DHT22;25973;52.368;4.940;2022-08-19T02:11:33;20.30;99.90
40255;DHT22;25973;52.368;4.940;2022-08-19T02:14:06;20.30;99.90
40255;DHT22;25973;52.368;4.940;2022-08-19T02:16:32;20.30;99.90
40255;DHT22;25973;52.368;4.940;2022-08-19T02:18:58;20.30;99.90
40255;DHT22;25973;52.368;4.940;2022-08-19T02:21:28;20.30;99.90
40255;DHT22;25973;52.368;4.940;2022-08-19T02:23:55;20.20;99.90
40255;DHT22;25973;52.368;4.940;2022-08-19T02:26:21;20.20;99.90
40255;DHT22;25973;52.368;4.940;2022-08-19T02:28:46;20.20;99.90
40255;DHT22;25973;52.368;4.940;2022-08-19T02:31:19;20.20;99.90
40255;DHT22;25973;52.368;4.940;2022-08-19T02:33:46;20.20;99.90
40255;DHT22;25973;52.368;4.940;2022-08-19T02:36:13;20.20;99.90
40255;DHT22;25973;52.368;4.940;2022-08-19T02:38:42;20.20;99.90
40255;DHT22;25973;52.368;4.940;2022-08-19T02:41:16;20.20;99.90
40255;DHT22;25973;52.368;4.940;2022-08-19T02:43:42;20.20;99.90
40255;DHT22;25973;52.368;4.940;2022-08-19T02:46:25;20.20;99.90
40255;DHT22;25973;52.368;4.940;2022-08-19T02:48:54;20.20;99.90
40255;DHT22;25973;52.368;4.940;2022-08-19T02:51:23;20.10;99.90
40255;DHT22;25973;52.368;4.940;2022-08-19T02:53:49;20.10;99.90
40255;DHT22;25973;52.368;4.940;2022-08-19T02:56:15;20.10;99.90
40255;DHT22;25973;52.368;4.940;2022-08-19T02:58:41;20.10;99.90
40255;DHT22;25973;52.368;4.940;2022-08-19T03:01:06;20.10;99.90
40255;DHT22;25973;52.368;4.940;2022-08-19T03:03:32;20.10;99.90
40255;DHT22;25973;52.368;4.940;2022-08-19T03:06:13;20.10;99.90
40255;DHT22;25973;52.368;4.940;2022-08-19T03:08:44;20.10;99.90
40255;DHT22;25973;52.368;4.940;2022-08-19T03:11:28;20.10;99.90
40255;DHT22;25973;52.368;4.940;2022-08-19T03:13:58;20.10;99.90
40255;DHT22;25973;52.368;4.940;2022-08-19T03:16:26;20.10;99.90
40255;DHT22;25973;52.368;4.940;2022-08-19T03:18:53;20.00;99.90
40255;DHT22;25973;52.368;4.940;2022-08-19T03:21:22;20.00;99.90
40255;DHT22;25973;52.368;4.940;2022-08-19T03:23:49;20.00;99.90
40255;DHT22;25973;52.368;4.940;2022-08-19T03:26:15;20.00;99.90
40255;DHT22;25973;52.368;4.940;2022-08-19T03:28:42;20.00;99.90
40255;DHT22;25973;52.368;4.940;2022-08-19T03:31:11;19.90;99.90
40255;DHT22;25973;52.368;4.940;2022-08-19T03:33:37;19.90;99.90
40255;DHT22;25973;52.368;4.940;2022-08-19T03:36:10;19.80;99.90
40255;DHT22;25973;52.368;4.940;2022-08-19T03:38:39;19.90;99.90
40255;DHT22;25973;52.368;4.940;2022-08-19T03:41:09;19.90;99.90
40255;DHT22;25973;52.368;4.940;2022-08-19T03:43:37;19.80;99.90
40255;DHT22;25973;52.368;4.940;2022-08-19T03:46:11;19.80;99.90
40255;DHT22;25973;52.368;4.940;2022-08-19T03:48:40;19.80;99.90
40255;DHT22;25973;52.368;4.940;2022-08-19T03:51:06;19.80;99.90
40255;DHT22;25973;52.368;4.940;2022-08-19T03:53:34;19.80;99.90
40255;DHT22;25973;52.368;4.940;2022-08-19T03:56:00;19.70;99.90
40255;DHT22;25973;52.368;4.940;2022-08-19T03:58:28;19.70;99.90
40255;DHT22;25973;52.368;4.940;2022-08-19T04:00:57;19.70;99.90
40255;DHT22;25973;52.368;4.940;2022-08-19T04:03:24;19.70;99.90
40255;DHT22;25973;52.368;4.940;2022-08-19T04:05:50;19.70;99.90
40255;DHT22;25973;52.368;4.940;2022-08-19T04:08:16;19.70;99.90
40255;DHT22;25973;52.368;4.940;2022-08-19T04:10:46;19.70;99.90
40255;DHT22;25973;52.368;4.940;2022-08-19T04:13:12;19.60;99.90
40255;DHT22;25973;52.368;4.940;2022-08-19T04:15:41;19.60;99.90
40255;DHT22;25973;52.368;4.940;2022-08-19T04:18:09;19.60;99.90
40255;DHT22;25973;52.368;4.940;2022-08-19T04:20:46;19.60;99.90
40255;DHT22;25973;52.368;4.940;2022-08-19T04:23:13;19.60;99.90
40255;DHT22;25973;52.368;4.940;2022-08-19T04:25:43;19.50;99.90
40255;DHT22;25973;52.368;4.940;2022-08-19T04:28:12;19.50;99.90
40255;DHT22;25973;52.368;4.940;2022-08-19T04:30:46;19.50;99.90
40255;DHT22;25973;52.368;4.940;2022-08-19T04:33:14;19.50;99.90
40255;DHT22;25973;52.368;4.940;2022-08-19T04:35:43;19.50;99.90
40255;DHT22;25973;52.368;4.940;2022-08-19T04:38:10;19.60;99.90
40255;DHT22;25973;52.368;4.940;2022-08-19T04:40:48;19.60;99.90
40255;DHT22;25973;52.368;4.940;2022-08-19T04:43:34;19.60;99.90
40255;DHT22;25973;52.368;4.940;2022-08-19T04:46:11;19.60;99.90
40255;DHT22;25973;52.368;4.940;2022-08-19T04:48:39;19.60;99.90
40255;DHT22;25973;52.368;4.940;2022-08-19T04:51:11;19.60;99.90
40255;DHT22;25973;52.368;4.940;2022-08-19T04:53:39;19.50;99.90
40255;DHT22;25973;52.368;4.940;2022-08-19T04:56:08;19.60;99.90
40255;DHT22;25973;52.368;4.940;2022-08-19T04:58:35;19.60;99.90
40255;DHT22;25973;52.368;4.940;2022-08-19T05:01:01;19.60;99.90
40255;DHT22;25973;52.368;4.940;2022-08-19T05:03:27;19.60;99.90
40255;DHT22;25973;52.368;4.940;2022-08-19T05:05:55;19.60;99.90
40255;DHT22;25973;52.368;4.940;2022-08-19T05:08:21;19.60;99.90
40255;DHT22;25973;52.368;4.940;2022-08-19T05:10:49;19.70;99.90
40255;DHT22;25973;52.368;4.940;2022-08-19T05:13:16;19.70;99.90
40255;DHT22;25973;52.368;4.940;2022-08-19T05:15:43;19.70;99.90
40255;DHT22;25973;52.368;4.940;2022-08-19T05:18:09;19.70;99.90
40255;DHT22;25973;52.368;4.940;2022-08-19T05:20:53;19.70;99.90
40255;DHT22;25973;52.368;4.940;2022-08-19T05:23:37;19.70;99.90
40255;DHT22;25973;52.368;4.940;2022-08-19T05:26:03;19.80;99.90
40255;DHT22;25973;52.368;4.940;2022-08-19T05:28:29;19.80;99.90
40255;DHT22;25973;52.368;4.940;2022-08-19T05:30:55;19.80;99.90
40255;DHT22;25973;52.368;4.940;2022-08-19T05:33:21;19.90;99.90
40255;DHT22;25973;52.368;4.940;2022-08-19T05:35:47;19.90;99.90
40255;DHT22;25973;52.368;4.940;2022-08-19T05:38:15;20.00;99.90
40255;DHT22;25973;52.368;4.940;2022-08-19T05:40:41;20.00;99.90
40255;DHT22;25973;52.368;4.940;2022-08-19T05:43:11;20.10;99.90
40255;DHT22;25973;52.368;4.940;2022-08-19T05:45:40;20.10;99.90
40255;DHT22;25973;52.368;4.940;2022-08-19T05:48:07;20.20;99.90
40255;DHT22;25973;52.368;4.940;2022-08-19T05:50:33;20.20;99.90
40255;DHT22;25973;52.368;4.940;2022-08-19T05:53:00;20.40;99.90
40255;DHT22;25973;52.368;4.940;2022-08-19T05:55:25;20.40;99.90
40255;DHT22;25973;52.368;4.940;2022-08-19T05:57:51;20.50;99.90
40255;DHT22;25973;52.368;4.940;2022-08-19T06:00:17;20.50;99.90
40255;DHT22;25973;52.368;4.940;2022-08-19T06:02:42;20.60;99.90
40255;DHT22;25973;52.368;4.940;2022-08-19T06:05:08;20.60;99.90
40255;DHT22;25973;52.368;4.940;2022-08-19T06:07:38;20.70;99.90
40255;DHT22;25973;52.368;4.940;2022-08-19T06:10:06;20.80;99.90
40255;DHT22;25973;52.368;4.940;2022-08-19T06:12:33;20.90;99.90
40255;DHT22;25973;52.368;4.940;2022-08-19T06:15:02;20.90;99.90
40255;DHT22;25973;52.368;4.940;2022-08-19T06:17:29;21.00;99.90
40255;DHT22;25973;52.368;4.940;2022-08-19T06:19:55;21.10;99.90
40255;DHT22;25973;52.368;4.940;2022-08-19T06:22:21;21.10;99.90
40255;DHT22;25973;52.368;4.940;2022-08-19T06:24:46;21.10;99.90
40255;DHT22;25973;52.368;4.940;2022-08-19T06:27:12;21.10;99.90
40255;DHT22;25973;52.368;4.940;2022-08-19T06:29:38;21.10;99.90
40255;DHT22;25973;52.368;4.940;2022-08-19T06:32:03;21.20;99.90
40255;DHT22;25973;52.368;4.940;2022-08-19T06:34:31;21.10;99.90
40255;DHT22;25973;52.368;4.940;2022-08-19T06:36:59;21.20;99.90
40255;DHT22;25973;52.368;4.940;2022-08-19T06:39:28;21.10;99.90
40255;DHT22;25973;52.368;4.940;2022-08-19T06:41:56;21.20;99.90
40255;DHT22;25973;52.368;4.940;2022-08-19T06:44:24;21.20;99.90
40255;DHT22;25973;52.368;4.940;2022-08-19T06:46:54;21.20;99.90
40255;DHT22;25973;52.368;4.940;2022-08-19T06:49:20;21.20;99.90
40255;DHT22;25973;52.368;4.940;2022-08-19T06:51:48;21.20;99.90
40255;DHT22;25973;52.368;4.940;2022-08-19T06:54:15;21.20;99.90
40255;DHT22;25973;52.368;4.940;2022-08-19T06:56:41;21.30;99.90
40255;DHT22;25973;52.368;4.940;2022-08-19T06:59:09;21.40;99.90
40255;DHT22;25973;52.368;4.940;2022-08-19T07:01:48;21.50;99.90
40255;DHT22;25973;52.368;4.940;2022-08-19T07:04:16;21.60;99.90
40255;DHT22;25973;52.368;4.940;2022-08-19T07:06:43;21.70;99.90
40255;DHT22;25973;52.368;4.940;2022-08-19T07:09:11;21.80;99.90
40255;DHT22;25973;52.368;4.940;2022-08-19T07:11:37;21.90;99.90
40255;DHT22;25973;52.368;4.940;2022-08-19T07:14:03;22.00;99.90
40255;DHT22;25973;52.368;4.940;2022-08-19T07:16:29;22.00;99.90
40255;DHT22;25973;52.368;4.940;2022-08-19T07:18:55;22.10;99.90
40255;DHT22;25973;52.368;4.940;2022-08-19T07:21:24;22.30;99.90
40255;DHT22;25973;52.368;4.940;2022-08-19T07:23:53;22.30;99.90
40255;DHT22;25973;52.368;4.940;2022-08-19T07:28:47;22.50;99.90
40255;DHT22;25973;52.368;4.940;2022-08-19T07:31:16;22.60;99.90
40255;DHT22;25973;52.368;4.940;2022-08-19T07:33:44;22.70;99.90
40255;DHT22;25973;52.368;4.940;2022-08-19T07:36:11;22.90;99.90
40255;DHT22;25973;52.368;4.940;2022-08-19T07:38:39;23.10;99.90
40255;DHT22;25973;52.368;4.940;2022-08-19T07:41:06;23.40;99.90
40255;DHT22;25973;52.368;4.940;2022-08-19T07:43:32;23.60;99.90
40255;DHT22;25973;52.368;4.940;2022-08-19T07:45:58;24.00;99.90
40255;DHT22;25973;52.368;4.940;2022-08-19T07:48:27;24.30;99.90
40255;DHT22;25973;52.368;4.940;2022-08-19T07:50:55;24.70;99.90
40255;DHT22;25973;52.368;4.940;2022-08-19T07:53:23;25.10;99.90
40255;DHT22;25973;52.368;4.940;2022-08-19T07:55:49;25.40;99.90
40255;DHT22;25973;52.368;4.940;2022-08-19T07:58:18;25.50;99.90
40255;DHT22;25973;52.368;4.940;2022-08-19T08:00:46;25.60;99.90
40255;DHT22;25973;52.368;4.940;2022-08-19T08:03:14;25.70;99.90
40255;DHT22;25973;52.368;4.940;2022-08-19T08:05:40;25.80;99.90
40255;DHT22;25973;52.368;4.940;2022-08-19T08:08:24;25.80;99.90
40255;DHT22;25973;52.368;4.940;2022-08-19T08:11:05;25.90;99.90
40255;DHT22;25973;52.368;4.940;2022-08-19T08:13:31;26.00;99.90
40255;DHT22;25973;52.368;4.940;2022-08-19T08:15:58;26.10;99.90
40255;DHT22;25973;52.368;4.940;2022-08-19T08:18:24;26.20;99.90
40255;DHT22;25973;52.368;4.940;2022-08-19T08:20:50;26.30;99.90
40255;DHT22;25973;52.368;4.940;2022-08-19T08:23:15;26.30;99.90
40255;DHT22;25973;52.368;4.940;2022-08-19T08:25:47;26.40;99.90
40255;DHT22;25973;52.368;4.940;2022-08-19T08:28:14;26.60;99.90
40255;DHT22;25973;52.368;4.940;2022-08-19T08:30:40;26.80;99.90
40255;DHT22;25973;52.368;4.940;2022-08-19T08:33:08;27.10;99.90
40255;DHT22;25973;52.368;4.940;2022-08-19T08:35:33;27.50;99.90
40255;DHT22;25973;52.368;4.940;2022-08-19T08:37:59;27.90;99.90
40255;DHT22;25973;52.368;4.940;2022-08-19T08:43:29;28.50;99.90
40255;DHT22;25973;52.368;4.940;2022-08-19T08:46:05;28.80;99.90
40255;DHT22;25973;52.368;4.940;2022-08-19T08:48:51;28.80;99.90
40255;DHT22;25973;52.368;4.940;2022-08-19T08:51:25;28.80;99.90
40255;DHT22;25973;52.368;4.940;2022-08-19T08:53:52;28.70;99.90
40255;DHT22;25973;52.368;4.940;2022-08-19T08:56:22;28.40;99.90
40255;DHT22;25973;52.368;4.940;2022-08-19T08:59:05;28.10;99.90
40255;DHT22;25973;52.368;4.940;2022-08-19T09:01:35;27.80;99.90
40255;DHT22;25973;52.368;4.940;2022-08-19T09:04:05;27.60;99.90
40255;DHT22;25973;52.368;4.940;2022-08-19T09:09:14;27.70;99.90
40255;DHT22;25973;52.368;4.940;2022-08-19T09:17:00;27.80;99.90
40255;DHT22;25973;52.368;4.940;2022-08-19T09:19:29;27.60;99.90
40255;DHT22;25973;52.368;4.940;2022-08-19T09:21:54;27.60;99.90
40255;DHT22;25973;52.368;4.940;2022-08-19T09:24:20;27.60;99.90
40255;DHT22;25973;52.368;4.940;2022-08-19T09:26:45;27.70;99.90
40255;DHT22;25973;52.368;4.940;2022-08-19T09:29:11;27.80;99.90
40255;DHT22;25973;52.368;4.940;2022-08-19T09:31:38;28.00;99.90
40255;DHT22;25973;52.368;4.940;2022-08-19T09:34:03;28.00;99.90
40255;DHT22;25973;52.368;4.940;2022-08-19T09:36:33;27.80;99.90
40255;DHT22;25973;52.368;4.940;2022-08-19T09:39:02;27.70;99.90
40255;DHT22;25973;52.368;4.940;2022-08-19T09:41:28;27.60;99.90
40255;DHT22;25973;52.368;4.940;2022-08-19T09:43:55;27.60;99.90
40255;DHT22;25973;52.368;4.940;2022-08-19T09:46:24;27.60;99.90
40255;DHT22;25973;52.368;4.940;2022-08-19T09:48:50;27.60;99.90
40255;DHT22;25973;52.368;4.940;2022-08-19T09:51:19;27.80;99.90
40255;DHT22;25973;52.368;4.940;2022-08-19T09:53:46;27.80;99.90
40255;DHT22;25973;52.368;4.940;2022-08-19T09:56:13;27.80;99.90
40255;DHT22;25973;52.368;4.940;2022-08-19T09:58:39;27.80;99.90
40255;DHT22;25973;52.368;4.940;2022-08-19T10:01:07;27.70;99.90
40255;DHT22;25973;52.368;4.940;2022-08-19T10:03:35;27.60;99.90
40255;DHT22;25973;52.368;4.940;2022-08-19T10:06:04;27.50;99.90
40255;DHT22;25973;52.368;4.940;2022-08-19T10:08:34;27.20;99.90
40255;DHT22;25973;52.368;4.940;2022-08-19T10:11:01;27.10;99.90
40255;DHT22;25973;52.368;4.940;2022-08-19T10:13:29;26.90;99.90
40255;DHT22;25973;52.368;4.940;2022-08-19T10:16:01;26.70;99.90
40255;DHT22;25973;52.368;4.940;2022-08-19T10:18:27;26.50;99.90
40255;DHT22;25973;52.368;4.940;2022-08-19T10:21:04;26.40;99.90
40255;DHT22;25973;52.368;4.940;2022-08-19T10:23:34;26.30;99.90
40255;DHT22;25973;52.368;4.940;2022-08-19T10:26:00;26.30;99.90
40255;DHT22;25973;52.368;4.940;2022-08-19T10:28:26;26.30;99.90
40255;DHT22;25973;52.368;4.940;2022-08-19T10:30:51;26.20;99.90
40255;DHT22;25973;52.368;4.940;2022-08-19T10:33:17;26.20;99.90
40255;DHT22;25973;52.368;4.940;2022-08-19T10:35:43;26.20;99.90
40255;DHT22;25973;52.368;4.940;2022-08-19T10:38:12;26.20;99.90
40255;DHT22;25973;52.368;4.940;2022-08-19T10:40:37;26.20;99.90
40255;DHT22;25973;52.368;4.940;2022-08-19T10:43:03;26.30;99.90
40255;DHT22;25973;52.368;4.940;2022-08-19T10:45:29;26.40;99.90
40255;DHT22;25973;52.368;4.940;2022-08-19T10:47:54;26.40;99.90
40255;DHT22;25973;52.368;4.940;2022-08-19T10:50:20;26.60;99.90
40255;DHT22;25973;52.368;4.940;2022-08-19T10:53:06;26.60;99.90
40255;DHT22;25973;52.368;4.940;2022-08-19T10:55:35;26.60;99.90
40255;DHT22;25973;52.368;4.940;2022-08-19T10:58:21;26.60;99.90
40255;DHT22;25973;52.368;4.940;2022-08-19T11:00:54;26.50;99.90
40255;DHT22;25973;52.368;4.940;2022-08-19T11:03:21;26.50;99.90
40255;DHT22;25973;52.368;4.940;2022-08-19T11:05:53;26.40;99.90
40255;DHT22;25973;52.368;4.940;2022-08-19T11:08:21;26.30;99.90
40255;DHT22;25973;52.368;4.940;2022-08-19T11:10:47;26.30;99.90
40255;DHT22;25973;52.368;4.940;2022-08-19T11:13:13;26.30;99.90
40255;DHT22;25973;52.368;4.940;2022-08-19T11:15:38;26.30;99.90
40255;DHT22;25973;52.368;4.940;2022-08-19T11:18:04;26.30;99.90
40255;DHT22;25973;52.368;4.940;2022-08-19T11:20:30;26.30;99.90
40255;DHT22;25973;52.368;4.940;2022-08-19T11:22:56;26.30;99.90
40255;DHT22;25973;52.368;4.940;2022-08-19T11:25:21;26.30;99.90
40255;DHT22;25973;52.368;4.940;2022-08-19T11:27:47;26.30;99.90
40255;DHT22;25973;52.368;4.940;2022-08-19T11:30:17;26.20;99.90
40255;DHT22;25973;52.368;4.940;2022-08-19T11:32:42;26.30;99.90
40255;DHT22;25973;52.368;4.940;2022-08-19T11:35:08;26.40;99.90
40255;DHT22;25973;52.368;4.940;2022-08-19T11:37:34;26.50;99.90
40255;DHT22;25973;52.368;4.940;2022-08-19T11:40:06;26.50;99.90
40255;DHT22;25973;52.368;4.940;2022-08-19T11:42:31;26.60;99.90
40255;DHT22;25973;52.368;4.940;2022-08-19T11:45:15;26.70;99.90
40255;DHT22;25973;52.368;4.940;2022-08-19T11:47:41;26.70;99.90
40255;DHT22;25973;52.368;4.940;2022-08-19T11:50:07;26.70;99.90
40255;DHT22;25973;52.368;4.940;2022-08-19T11:52:32;26.60;99.90
40255;DHT22;25973;52.368;4.940;2022-08-19T11:54:58;26.60;99.90
40255;DHT22;25973;52.368;4.940;2022-08-19T11:57:24;26.50;99.90
40255;DHT22;25973;52.368;4.940;2022-08-19T11:59:51;26.50;99.90
40255;DHT22;25973;52.368;4.940;2022-08-19T12:02:17;26.50;99.90
40255;DHT22;25973;52.368;4.940;2022-08-19T12:04:42;26.40;99.90
40255;DHT22;25973;52.368;4.940;2022-08-19T12:07:08;26.40;99.90
40255;DHT22;25973;52.368;4.940;2022-08-19T12:09:34;26.50;99.90
40255;DHT22;25973;52.368;4.940;2022-08-19T12:12:00;26.50;99.90
40255;DHT22;25973;52.368;4.940;2022-08-19T12:14:27;26.60;99.90
40255;DHT22;25973;52.368;4.940;2022-08-19T12:16:55;26.70;99.90
40255;DHT22;25973;52.368;4.940;2022-08-19T12:19:22;26.70;99.90
40255;DHT22;25973;52.368;4.940;2022-08-19T12:21:50;26.70;99.90
40255;DHT22;25973;52.368;4.940;2022-08-19T12:24:16;26.70;99.90
40255;DHT22;25973;52.368;4.940;2022-08-19T12:26:48;26.80;99.90
40255;DHT22;25973;52.368;4.940;2022-08-19T12:29:14;26.90;99.90
40255;DHT22;25973;52.368;4.940;2022-08-19T12:31:42;26.90;99.90
40255;DHT22;25973;52.368;4.940;2022-08-19T12:34:08;26.90;99.90
40255;DHT22;25973;52.368;4.940;2022-08-19T12:36:34;26.80;99.90
40255;DHT22;25973;52.368;4.940;2022-08-19T12:39:00;26.70;99.90
40255;DHT22;25973;52.368;4.940;2022-08-19T12:41:25;26.70;99.90
40255;DHT22;25973;52.368;4.940;2022-08-19T12:43:51;26.70;99.90
40255;DHT22;25973;52.368;4.940;2022-08-19T12:46:18;26.60;99.90
40255;DHT22;25973;52.368;4.940;2022-08-19T12:48:44;26.60;99.90
40255;DHT22;25973;52.368;4.940;2022-08-19T12:51:17;26.60;99.90
40255;DHT22;25973;52.368;4.940;2022-08-19T12:53:44;26.50;99.90
40255;DHT22;25973;52.368;4.940;2022-08-19T12:56:11;26.50;99.90
40255;DHT22;25973;52.368;4.940;2022-08-19T12:58:38;26.50;99.90
40255;DHT22;25973;52.368;4.940;2022-08-19T13:01:14;26.50;99.90
40255;DHT22;25973;52.368;4.940;2022-08-19T13:03:41;26.50;99.90
40255;DHT22;25973;52.368;4.940;2022-08-19T13:06:08;26.60;99.90
40255;DHT22;25973;52.368;4.940;2022-08-19T13:08:33;26.60;99.90
40255;DHT22;25973;52.368;4.940;2022-08-19T13:11:08;26.60;99.90
40255;DHT22;25973;52.368;4.940;2022-08-19T13:13:34;26.80;99.90
40255;DHT22;25973;52.368;4.940;2022-08-19T13:16:01;26.80;99.90
40255;DHT22;25973;52.368;4.940;2022-08-19T13:18:30;26.80;99.90
40255;DHT22;25973;52.368;4.940;2022-08-19T13:20:56;26.90;99.90
40255;DHT22;25973;52.368;4.940;2022-08-19T13:23:22;26.90;99.90
40255;DHT22;25973;52.368;4.940;2022-08-19T13:26:02;27.00;99.90
40255;DHT22;25973;52.368;4.940;2022-08-19T13:28:28;27.00;99.90
40255;DHT22;25973;52.368;4.940;2022-08-19T13:31:19;27.10;99.90
40255;DHT22;25973;52.368;4.940;2022-08-19T13:34:04;27.10;99.90
40255;DHT22;25973;52.368;4.940;2022-08-19T13:36:34;27.10;99.90
40255;DHT22;25973;52.368;4.940;2022-08-19T13:39:01;27.00;99.90
40255;DHT22;25973;52.368;4.940;2022-08-19T13:41:27;27.00;99.90
40255;DHT22;25973;52.368;4.940;2022-08-19T13:43:52;26.90;99.90
40255;DHT22;25973;52.368;4.940;2022-08-19T13:46:18;26.90;99.90
40255;DHT22;25973;52.368;4.940;2022-08-19T13:48:45;26.80;99.90
40255;DHT22;25973;52.368;4.940;2022-08-19T13:51:11;26.80;99.90
40255;DHT22;25973;52.368;4.940;2022-08-19T13:53:38;26.70;99.90
40255;DHT22;25973;52.368;4.940;2022-08-19T13:56:13;26.70;99.90
40255;DHT22;25973;52.368;4.940;2022-08-19T13:58:39;26.60;99.90
40255;DHT22;25973;52.368;4.940;2022-08-19T14:01:06;26.60;99.90
40255;DHT22;25973;52.368;4.940;2022-08-19T14:03:33;26.60;99.90
40255;DHT22;25973;52.368;4.940;2022-08-19T14:06:00;26.60;99.90
40255;DHT22;25973;52.368;4.940;2022-08-19T14:08:26;26.60;99.90
40255;DHT22;25973;52.368;4.940;2022-08-19T14:10:54;26.50;99.90
40255;DHT22;25973;52.368;4.940;2022-08-19T14:13:21;26.60;99.90
40255;DHT22;25973;52.368;4.940;2022-08-19T14:15:47;26.50;99.90
40255;DHT22;25973;52.368;4.940;2022-08-19T14:18:13;26.50;99.90
40255;DHT22;25973;52.368;4.940;2022-08-19T14:20:39;26.50;99.90
40255;DHT22;25973;52.368;4.940;2022-08-19T14:23:05;26.50;99.90
40255;DHT22;25973;52.368;4.940;2022-08-19T14:25:32;26.50;99.90
40255;DHT22;25973;52.368;4.940;2022-08-19T14:27:59;26.60;99.90
40255;DHT22;25973;52.368;4.940;2022-08-19T14:30:31;26.70;99.90
40255;DHT22;25973;52.368;4.940;2022-08-19T14:32:59;26.80;99.90
40255;DHT22;25973;52.368;4.940;2022-08-19T14:35:29;26.90;99.90
40255;DHT22;25973;52.368;4.940;2022-08-19T14:37:56;27.00;99.90
40255;DHT22;25973;52.368;4.940;2022-08-19T14:40:25;26.90;99.90
40255;DHT22;25973;52.368;4.940;2022-08-19T14:42:52;26.90;99.90
40255;DHT22;25973;52.368;4.940;2022-08-19T14:45:21;27.00;99.90
40255;DHT22;25973;52.368;4.940;2022-08-19T14:47:46;27.00;99.90
40255;DHT22;25973;52.368;4.940;2022-08-19T14:50:12;27.00;99.90
40255;DHT22;25973;52.368;4.940;2022-08-19T14:52:39;27.00;99.90
40255;DHT22;25973;52.368;4.940;2022-08-19T14:55:05;26.90;99.90
40255;DHT22;25973;52.368;4.940;2022-08-19T14:57:34;27.00;99.90
40255;DHT22;25973;52.368;4.940;2022-08-19T14:59:59;26.90;99.90
40255;DHT22;25973;52.368;4.940;2022-08-19T15:02:25;26.90;99.90
40255;DHT22;25973;52.368;4.940;2022-08-19T15:04:50;26.90;99.90
40255;DHT22;25973;52.368;4.940;2022-08-19T15:07:17;26.90;99.90
40255;DHT22;25973;52.368;4.940;2022-08-19T15:09:42;26.80;99.90
40255;DHT22;25973;52.368;4.940;2022-08-19T15:12:08;26.60;99.90
40255;DHT22;25973;52.368;4.940;2022-08-19T15:14:36;26.50;99.90
40255;DHT22;25973;52.368;4.940;2022-08-19T15:17:03;26.30;99.90
40255;DHT22;25973;52.368;4.940;2022-08-19T15:19:30;26.20;99.90
40255;DHT22;25973;52.368;4.940;2022-08-19T15:21:57;26.10;99.90
40255;DHT22;25973;52.368;4.940;2022-08-19T15:24:23;26.00;99.90
40255;DHT22;25973;52.368;4.940;2022-08-19T15:26:51;26.00;99.90
40255;DHT22;25973;52.368;4.940;2022-08-19T15:29:17;26.00;99.90
40255;DHT22;25973;52.368;4.940;2022-08-19T15:31:43;26.00;99.90
40255;DHT22;25973;52.368;4.940;2022-08-19T15:34:08;25.90;99.90
40255;DHT22;25973;52.368;4.940;2022-08-19T15:36:35;25.70;99.90
40255;DHT22;25973;52.368;4.940;2022-08-19T15:39:01;25.60;99.90
40255;DHT22;25973;52.368;4.940;2022-08-19T15:41:29;25.50;99.90
40255;DHT22;25973;52.368;4.940;2022-08-19T15:44:07;25.50;99.90
40255;DHT22;25973;52.368;4.940;2022-08-19T15:46:35;25.50;99.90
40255;DHT22;25973;52.368;4.940;2022-08-19T15:49:02;25.50;99.90
40255;DHT22;25973;52.368;4.940;2022-08-19T15:51:30;25.50;99.90